Terminal Aerodrome Forecast
Issued by NWS Blacksburg, VA

Current Version | Previous Version | Text Only | Print | Product List | Glossary Off
Versions: 1 2 3 4 5 6 7 8 9 10 11 12 13 14

000
FTUS41 KRNK 241139
TAFBLF
TAF
KBLF 241139Z 2412/2512 19006KT P6SM SCT035 BKN250
     FM241800 22007KT P6SM BKN050 BKN250
     FM250200 17005KT P6SM BKN040 BKN150 OVC250=

USA.gov is the U.S. government's official web portal to all federal, state and local government web resources and services.